sensor_id;sensor_type;location;lat;lon;timestamp;pressure;altitude;pressure_sealevel;temperature;humidity
67697;BME280;54486;51.442;6.778;2022-07-05T00:01:25;101915.53;;;18.27;61.25
67697;BME280;54486;51.442;6.778;2022-07-05T00:03:53;101915.72;;;18.18;60.84
67697;BME280;54486;51.442;6.778;2022-07-05T00:06:20;101917.50;;;18.16;61.06
67697;BME280;54486;51.442;6.778;2022-07-05T00:08:47;101921.91;;;18.16;61.17
67697;BME280;54486;51.442;6.778;2022-07-05T00:11:14;101928.06;;;18.16;61.33
67697;BME280;54486;51.442;6.778;2022-07-05T00:13:41;101931.66;;;18.15;61.64
67697;BME280;54486;51.442;6.778;2022-07-05T00:16:08;101924.59;;;18.14;61.89
67697;BME280;54486;51.442;6.778;2022-07-05T00:18:35;101922.78;;;18.16;61.70
67697;BME280;54486;51.442;6.778;2022-07-05T00:21:02;101922.84;;;18.13;62.08
67697;BME280;54486;51.442;6.778;2022-07-05T00:23:29;101908.94;;;18.05;62.45
67697;BME280;54486;51.442;6.778;2022-07-05T00:25:57;101921.34;;;18.00;62.61
67697;BME280;54486;51.442;6.778;2022-07-05T00:28:24;101926.63;;;18.00;62.68
67697;BME280;54486;51.442;6.778;2022-07-05T00:30:53;101911.78;;;17.96;62.89
67697;BME280;54486;51.442;6.778;2022-07-05T00:33:20;101914.47;;;17.93;63.35
67697;BME280;54486;51.442;6.778;2022-07-05T00:35:49;101918.00;;;17.92;63.17
67697;BME280;54486;51.442;6.778;2022-07-05T00:38:17;101915.50;;;17.84;63.03
67697;BME280;54486;51.442;6.778;2022-07-05T00:40:45;101915.50;;;17.84;62.74
67697;BME280;54486;51.442;6.778;2022-07-05T00:43:12;101914.63;;;17.84;62.62
67697;BME280;54486;51.442;6.778;2022-07-05T00:45:39;101911.16;;;17.82;63.20
67697;BME280;54486;51.442;6.778;2022-07-05T00:48:06;101919.84;;;17.87;62.58
67697;BME280;54486;51.442;6.778;2022-07-05T00:50:33;101926.94;;;17.85;62.70
67697;BME280;54486;51.442;6.778;2022-07-05T00:53:01;101925.03;;;17.93;62.17
67697;BME280;54486;51.442;6.778;2022-07-05T00:55:28;101934.69;;;17.94;62.38
67697;BME280;54486;51.442;6.778;2022-07-05T00:57:55;101925.88;;;17.93;62.23
67697;BME280;54486;51.442;6.778;2022-07-05T01:00:22;101924.16;;;17.92;62.29
67697;BME280;54486;51.442;6.778;2022-07-05T01:02:51;101924.97;;;17.96;62.91
67697;BME280;54486;51.442;6.778;2022-07-05T01:05:21;101926.81;;;17.91;62.46
67697;BME280;54486;51.442;6.778;2022-07-05T01:07:48;101930.41;;;17.88;62.80
67697;BME280;54486;51.442;6.778;2022-07-05T01:10:16;101930.38;;;17.90;62.02
67697;BME280;54486;51.442;6.778;2022-07-05T01:12:44;101929.53;;;17.88;62.42
67697;BME280;54486;51.442;6.778;2022-07-05T01:15:12;101928.63;;;17.89;62.02
67697;BME280;54486;51.442;6.778;2022-07-05T01:17:40;101932.16;;;17.88;62.66
67697;BME280;54486;51.442;6.778;2022-07-05T01:20:09;101935.66;;;17.90;62.53
67697;BME280;54486;51.442;6.778;2022-07-05T01:22:56;101932.09;;;17.91;62.68
67697;BME280;54486;51.442;6.778;2022-07-05T01:25:28;101930.31;;;17.93;62.77
67697;BME280;54486;51.442;6.778;2022-07-05T01:27:58;101925.09;;;17.90;62.75
67697;BME280;54486;51.442;6.778;2022-07-05T01:30:26;101926.13;;;17.83;63.15
67697;BME280;54486;51.442;6.778;2022-07-05T01:32:54;101928.81;;;17.80;62.88
67697;BME280;54486;51.442;6.778;2022-07-05T01:35:22;101927.25;;;17.70;62.55
67697;BME280;54486;51.442;6.778;2022-07-05T01:37:52;101930.81;;;17.66;63.20
67697;BME280;54486;51.442;6.778;2022-07-05T01:40:20;101923.72;;;17.68;63.06
67697;BME280;54486;51.442;6.778;2022-07-05T01:42:47;101923.78;;;17.65;63.52
67697;BME280;54486;51.442;6.778;2022-07-05T01:45:14;101927.47;;;17.58;63.59
67697;BME280;54486;51.442;6.778;2022-07-05T01:48:06;101932.75;;;17.55;63.69
67697;BME280;54486;51.442;6.778;2022-07-05T01:50:51;101931.06;;;17.51;63.75
67697;BME280;54486;51.442;6.778;2022-07-05T01:53:24;101929.38;;;17.46;63.82
67697;BME280;54486;51.442;6.778;2022-07-05T01:55:59;101927.56;;;17.48;63.68
67697;BME280;54486;51.442;6.778;2022-07-05T01:58:28;101927.63;;;17.45;63.48
67697;BME280;54486;51.442;6.778;2022-07-05T02:00:57;101921.44;;;17.48;63.30
67697;BME280;54486;51.442;6.778;2022-07-05T02:03:26;101916.06;;;17.53;63.91
67697;BME280;54486;51.442;6.778;2022-07-05T02:06:13;101912.56;;;17.52;63.69
67697;BME280;54486;51.442;6.778;2022-07-05T02:08:41;101925.72;;;17.54;64.03
67697;BME280;54486;51.442;6.778;2022-07-05T02:11:11;101919.59;;;17.53;63.92
67697;BME280;54486;51.442;6.778;2022-07-05T02:13:39;101918.69;;;17.56;63.86
67697;BME280;54486;51.442;6.778;2022-07-05T02:16:07;101915.22;;;17.51;63.90
67697;BME280;54486;51.442;6.778;2022-07-05T02:18:35;101914.34;;;17.50;64.05
67697;BME280;54486;51.442;6.778;2022-07-05T02:21:04;101909.94;;;17.51;64.37
67697;BME280;54486;51.442;6.778;2022-07-05T02:23:35;101917.00;;;17.48;64.07
67697;BME280;54486;51.442;6.778;2022-07-05T02:26:03;101911.72;;;17.52;63.75
67697;BME280;54486;51.442;6.778;2022-07-05T02:28:31;101907.38;;;17.46;63.74
67697;BME280;54486;51.442;6.778;2022-07-05T02:30:59;101908.38;;;17.40;63.84
67697;BME280;54486;51.442;6.778;2022-07-05T02:33:26;101918.00;;;17.43;63.52
67697;BME280;54486;51.442;6.778;2022-07-05T02:35:53;101911.84;;;17.42;63.91
67697;BME280;54486;51.442;6.778;2022-07-05T02:38:20;101914.53;;;17.41;63.92
67697;BME280;54486;51.442;6.778;2022-07-05T02:40:47;101916.34;;;17.37;63.61
67697;BME280;54486;51.442;6.778;2022-07-05T02:43:15;101919.91;;;17.35;63.76
67697;BME280;54486;51.442;6.778;2022-07-05T02:45:42;101911.03;;;17.39;63.81
67697;BME280;54486;51.442;6.778;2022-07-05T02:48:09;101919.84;;;17.38;64.00
67697;BME280;54486;51.442;6.778;2022-07-05T02:50:36;101924.31;;;17.34;63.87
67697;BME280;54486;51.442;6.778;2022-07-05T02:53:03;101917.34;;;17.30;64.40
67697;BME280;54486;51.442;6.778;2022-07-05T02:55:31;101925.25;;;17.32;64.40
67697;BME280;54486;51.442;6.778;2022-07-05T02:57:58;101921.88;;;17.22;64.78
67697;BME280;54486;51.442;6.778;2022-07-05T03:00:26;101927.94;;;17.27;63.98
67697;BME280;54486;51.442;6.778;2022-07-05T03:02:54;101925.44;;;17.20;65.06
67697;BME280;54486;51.442;6.778;2022-07-05T03:05:21;101929.94;;;17.13;64.91
67697;BME280;54486;51.442;6.778;2022-07-05T03:07:48;101935.28;;;17.10;65.48
67697;BME280;54486;51.442;6.778;2022-07-05T03:10:15;101932.66;;;17.07;66.11
67697;BME280;54486;51.442;6.778;2022-07-05T03:12:42;101930.16;;;16.98;66.07
67697;BME280;54486;51.442;6.778;2022-07-05T03:15:14;101936.47;;;16.89;66.29
67697;BME280;54486;51.442;6.778;2022-07-05T03:17:42;101929.53;;;16.84;66.98
67697;BME280;54486;51.442;6.778;2022-07-05T03:20:14;101939.28;;;16.76;66.48
67697;BME280;54486;51.442;6.778;2022-07-05T03:22:42;101935.72;;;16.80;66.22
67697;BME280;54486;51.442;6.778;2022-07-05T03:25:10;101939.19;;;16.82;66.61
67697;BME280;54486;51.442;6.778;2022-07-05T03:27:38;101941.00;;;16.80;66.33
67697;BME280;54486;51.442;6.778;2022-07-05T03:30:05;101939.19;;;16.82;66.29
67697;BME280;54486;51.442;6.778;2022-07-05T03:32:33;101937.56;;;16.75;67.45
67697;BME280;54486;51.442;6.778;2022-07-05T03:35:01;101942.06;;;16.67;67.31
67697;BME280;54486;51.442;6.778;2022-07-05T03:37:28;101941.16;;;16.68;67.85
67697;BME280;54486;51.442;6.778;2022-07-05T03:39:55;101941.22;;;16.65;67.94
67697;BME280;54486;51.442;6.778;2022-07-05T03:42:22;101943.84;;;16.65;67.89
67697;BME280;54486;51.442;6.778;2022-07-05T03:44:55;101948.16;;;16.69;68.40
67697;BME280;54486;51.442;6.778;2022-07-05T03:47:25;101945.53;;;16.70;67.23
67697;BME280;54486;51.442;6.778;2022-07-05T03:49:55;101952.56;;;16.71;67.09
67697;BME280;54486;51.442;6.778;2022-07-05T03:52:23;101955.19;;;16.70;67.21
67697;BME280;54486;51.442;6.778;2022-07-05T03:54:53;101962.22;;;16.71;67.37
67697;BME280;54486;51.442;6.778;2022-07-05T03:57:21;101957.81;;;16.70;67.74
67697;BME280;54486;51.442;6.778;2022-07-05T03:59:48;101964.09;;;16.60;68.32
67697;BME280;54486;51.442;6.778;2022-07-05T04:02:16;101962.44;;;16.56;68.32
67697;BME280;54486;51.442;6.778;2022-07-05T04:04:43;101965.06;;;16.53;67.72
67697;BME280;54486;51.442;6.778;2022-07-05T04:07:11;101965.13;;;16.47;67.88
67697;BME280;54486;51.442;6.778;2022-07-05T04:09:38;101962.44;;;16.50;67.93
67697;BME280;54486;51.442;6.778;2022-07-05T04:12:05;101964.19;;;16.51;68.10
67697;BME280;54486;51.442;6.778;2022-07-05T04:14:33;101955.38;;;16.56;67.49
67697;BME280;54486;51.442;6.778;2022-07-05T04:17:00;101965.16;;;16.43;66.74
67697;BME280;54486;51.442;6.778;2022-07-05T04:19:27;101964.25;;;16.48;66.92
67697;BME280;54486;51.442;6.778;2022-07-05T04:21:54;101968.66;;;16.46;67.31
67697;BME280;54486;51.442;6.778;2022-07-05T04:24:24;101967.78;;;16.43;66.69
67697;BME280;54486;51.442;6.778;2022-07-05T04:26:52;101970.44;;;16.45;66.89
67697;BME280;54486;51.442;6.778;2022-07-05T04:29:20;101974.78;;;16.48;67.36
67697;BME280;54486;51.442;6.778;2022-07-05T04:31:48;101970.34;;;16.53;67.27
67697;BME280;54486;51.442;6.778;2022-07-05T04:34:15;101971.19;;;16.58;67.67
67697;BME280;54486;51.442;6.778;2022-07-05T04:36:45;101971.19;;;16.58;67.57
67697;BME280;54486;51.442;6.778;2022-07-05T04:39:16;101976.44;;;16.58;67.50
67697;BME280;54486;51.442;6.778;2022-07-05T04:41:44;101971.09;;;16.64;67.75
67697;BME280;54486;51.442;6.778;2022-07-05T04:44:12;101970.16;;;16.66;67.73
67697;BME280;54486;51.442;6.778;2022-07-05T04:46:43;101969.25;;;16.69;67.52
67697;BME280;54486;51.442;6.778;2022-07-05T04:49:15;101969.25;;;16.69;67.68
67697;BME280;54486;51.442;6.778;2022-07-05T04:51:43;101978.03;;;16.71;67.59
67697;BME280;54486;51.442;6.778;2022-07-05T04:54:14;101979.75;;;16.75;67.38
67697;BME280;54486;51.442;6.778;2022-07-05T04:56:45;101972.69;;;16.77;67.34
67697;BME280;54486;51.442;6.778;2022-07-05T04:59:13;101979.66;;;16.81;67.86
67697;BME280;54486;51.442;6.778;2022-07-05T05:01:40;101976.09;;;16.82;67.66
67697;BME280;54486;51.442;6.778;2022-07-05T05:04:09;101992.75;;;16.87;67.98
67697;BME280;54486;51.442;6.778;2022-07-05T05:06:37;101990.06;;;16.90;67.89
67697;BME280;54486;51.442;6.778;2022-07-05T05:09:05;101992.56;;;16.98;67.96
67697;BME280;54486;51.442;6.778;2022-07-05T05:11:34;101991.69;;;17.00;68.26
67697;BME280;54486;51.442;6.778;2022-07-05T05:14:03;101984.59;;;17.04;68.33
67697;BME280;54486;51.442;6.778;2022-07-05T05:16:33;101984.53;;;17.08;68.02
67697;BME280;54486;51.442;6.778;2022-07-05T05:19:00;101984.38;;;17.17;67.98
67697;BME280;54486;51.442;6.778;2022-07-05T05:21:28;101985.16;;;17.24;67.78
67697;BME280;54486;51.442;6.778;2022-07-05T05:23:55;101983.19;;;17.36;67.46
67697;BME280;54486;51.442;6.778;2022-07-05T05:26:24;101987.38;;;17.50;66.98
67697;BME280;54486;51.442;6.778;2022-07-05T05:28:53;101989.06;;;17.57;66.56
67697;BME280;54486;51.442;6.778;2022-07-05T05:31:21;101995.00;;;17.71;65.72
67697;BME280;54486;51.442;6.778;2022-07-05T05:33:55;101999.19;;;17.81;65.06
67697;BME280;54486;51.442;6.778;2022-07-05T05:36:23;101997.25;;;17.90;64.12
67697;BME280;54486;51.442;6.778;2022-07-05T05:38:51;102001.53;;;17.97;64.30
67697;BME280;54486;51.442;6.778;2022-07-05T05:41:19;101998.06;;;17.95;63.78
67697;BME280;54486;51.442;6.778;2022-07-05T05:43:46;101997.06;;;18.01;64.06
67697;BME280;54486;51.442;6.778;2022-07-05T05:46:16;102002.34;;;18.03;64.43
67697;BME280;54486;51.442;6.778;2022-07-05T05:48:45;102004.81;;;18.10;65.21
67697;BME280;54486;51.442;6.778;2022-07-05T05:51:16;102006.44;;;18.17;65.28
67697;BME280;54486;51.442;6.778;2022-07-05T05:53:43;102000.44;;;18.09;62.82
67697;BME280;54486;51.442;6.778;2022-07-05T05:56:14;102000.28;;;18.18;62.39
67697;BME280;54486;51.442;6.778;2022-07-05T05:58:41;102002.72;;;18.27;62.44
67697;BME280;54486;51.442;6.778;2022-07-05T06:01:12;102006.94;;;18.37;62.85
67697;BME280;54486;51.442;6.778;2022-07-05T06:03:41;102005.94;;;18.43;61.95
67697;BME280;54486;51.442;6.778;2022-07-05T06:06:12;102014.81;;;18.40;60.66
67697;BME280;54486;51.442;6.778;2022-07-05T06:08:40;102019.97;;;18.45;60.38
67697;BME280;54486;51.442;6.778;2022-07-05T06:11:07;102019.94;;;18.49;61.72
67697;BME280;54486;51.442;6.778;2022-07-05T06:13:38;102019.97;;;18.45;60.45
67697;BME280;54486;51.442;6.778;2022-07-05T06:16:06;102026.22;;;18.42;60.69
67697;BME280;54486;51.442;6.778;2022-07-05T06:18:34;102022.69;;;18.43;61.97
67697;BME280;54486;51.442;6.778;2022-07-05T06:21:02;102023.56;;;18.42;61.30
67697;BME280;54486;51.442;6.778;2022-07-05T06:23:31;102031.50;;;18.42;60.89
67697;BME280;54486;51.442;6.778;2022-07-05T06:25:58;102031.50;;;18.42;59.25
67697;BME280;54486;51.442;6.778;2022-07-05T06:28:25;102034.97;;;18.44;58.88
67697;BME280;54486;51.442;6.778;2022-07-05T06:30:53;102026.97;;;18.47;59.21
67697;BME280;54486;51.442;6.778;2022-07-05T06:33:20;102030.50;;;18.49;59.57
67697;BME280;54486;51.442;6.778;2022-07-05T06:35:47;102026.00;;;18.55;59.02
67697;BME280;54486;51.442;6.778;2022-07-05T06:38:14;102041.84;;;18.55;57.73
67697;BME280;54486;51.442;6.778;2022-07-05T06:40:43;102031.34;;;18.52;55.66
67697;BME280;54486;51.442;6.778;2022-07-05T06:43:12;102034.78;;;18.57;56.76
67697;BME280;54486;51.442;6.778;2022-07-05T06:45:40;102031.03;;;18.67;56.17
67697;BME280;54486;51.442;6.778;2022-07-05T06:48:10;102033.72;;;18.64;57.10
67697;BME280;54486;51.442;6.778;2022-07-05T06:50:43;102032.63;;;18.74;56.11
67697;BME280;54486;51.442;6.778;2022-07-05T06:53:11;102038.88;;;18.71;56.29
67697;BME280;54486;51.442;6.778;2022-07-05T06:55:39;102043.22;;;18.74;57.38
67697;BME280;54486;51.442;6.778;2022-07-05T06:58:23;102036.06;;;18.79;57.54
67697;BME280;54486;51.442;6.778;2022-07-05T07:00:51;102037.72;;;18.84;57.79
67697;BME280;54486;51.442;6.778;2022-07-05T07:03:40;102035.75;;;18.94;57.94
67697;BME280;54486;51.442;6.778;2022-07-05T07:06:27;102038.34;;;18.95;57.67
67697;BME280;54486;51.442;6.778;2022-07-05T07:08:56;102042.72;;;18.98;57.75
67697;BME280;54486;51.442;6.778;2022-07-05T07:11:41;102042.66;;;19.01;56.77
67697;BME280;54486;51.442;6.778;2022-07-05T07:14:12;102038.03;;;19.09;54.96
67697;BME280;54486;51.442;6.778;2022-07-05T07:16:40;102045.75;;;19.18;52.40
67697;BME280;54486;51.442;6.778;2022-07-05T07:19:07;102050.91;;;19.24;52.66
67697;BME280;54486;51.442;6.778;2022-07-05T07:21:39;102041.84;;;19.34;51.03
67697;BME280;54486;51.442;6.778;2022-07-05T07:24:07;102048.66;;;19.47;49.47
67697;BME280;54486;51.442;6.778;2022-07-05T07:26:35;102046.56;;;19.62;49.67
67697;BME280;54486;51.442;6.778;2022-07-05T07:29:22;102035.56;;;19.77;50.25
67697;BME280;54486;51.442;6.778;2022-07-05T07:31:49;102043.97;;;19.94;50.09
67697;BME280;54486;51.442;6.778;2022-07-05T07:34:17;102047.28;;;20.02;48.93
67697;BME280;54486;51.442;6.778;2022-07-05T07:36:47;102047.88;;;20.13;49.32
67697;BME280;54486;51.442;6.778;2022-07-05T07:39:15;102055.13;;;20.06;48.46
67697;BME280;54486;51.442;6.778;2022-07-05T07:41:47;102054.16;;;20.09;49.11
67697;BME280;54486;51.442;6.778;2022-07-05T07:44:15;102052.66;;;20.33;49.08
67697;BME280;54486;51.442;6.778;2022-07-05T07:46:45;102061.09;;;20.47;47.81
67697;BME280;54486;51.442;6.778;2022-07-05T07:49:14;102055.19;;;20.37;47.88
67697;BME280;54486;51.442;6.778;2022-07-05T07:51:41;102054.41;;;20.34;48.25
67697;BME280;54486;51.442;6.778;2022-07-05T07:54:09;102057.63;;;20.45;48.93
67697;BME280;54486;51.442;6.778;2022-07-05T07:56:39;102053.19;;;20.45;50.82
67697;BME280;54486;51.442;6.778;2022-07-05T07:59:08;102056.22;;;20.63;50.54
67697;BME280;54486;51.442;6.778;2022-07-05T08:01:36;102049.78;;;20.71;49.79
67697;BME280;54486;51.442;6.778;2022-07-05T08:04:13;102054.88;;;20.79;49.85
67697;BME280;54486;51.442;6.778;2022-07-05T08:06:43;102052.94;;;20.54;49.07
67697;BME280;54486;51.442;6.778;2022-07-05T08:09:11;102052.84;;;20.57;49.99
67697;BME280;54486;51.442;6.778;2022-07-05T08:11:47;102059.69;;;20.65;49.99
67697;BME280;54486;51.442;6.778;2022-07-05T08:14:15;102057.44;;;20.82;48.82
67697;BME280;54486;51.442;6.778;2022-07-05T08:16:47;102065.69;;;21.02;49.08
67697;BME280;54486;51.442;6.778;2022-07-05T08:19:19;102062.94;;;20.76;48.25
67697;BME280;54486;51.442;6.778;2022-07-05T08:22:06;102068.25;;;20.76;48.25
67697;BME280;54486;51.442;6.778;2022-07-05T08:24:38;102060.47;;;20.99;48.57
67697;BME280;54486;51.442;6.778;2022-07-05T08:27:10;102056.56;;;21.12;48.98
67697;BME280;54486;51.442;6.778;2022-07-05T08:29:38;102067.97;;;20.85;47.54
67697;BME280;54486;51.442;6.778;2022-07-05T08:32:06;102056.78;;;21.03;47.02
67697;BME280;54486;51.442;6.778;2022-07-05T08:34:33;102062.09;;;21.03;46.22
67697;BME280;54486;51.442;6.778;2022-07-05T08:37:01;102056.78;;;21.03;45.44
67697;BME280;54486;51.442;6.778;2022-07-05T08:39:28;102062.81;;;21.09;46.67
67697;BME280;54486;51.442;6.778;2022-07-05T08:41:57;102061.97;;;21.07;45.35
67697;BME280;54486;51.442;6.778;2022-07-05T08:44:28;102060.38;;;21.02;45.55
67697;BME280;54486;51.442;6.778;2022-07-05T08:46:57;102059.63;;;20.97;45.34
67697;BME280;54486;51.442;6.778;2022-07-05T08:49:32;102064.91;;;20.98;45.26
67697;BME280;54486;51.442;6.778;2022-07-05T08:52:10;102069.81;;;20.83;45.71
67697;BME280;54486;51.442;6.778;2022-07-05T08:54:38;102062.94;;;20.76;46.14
67697;BME280;54486;51.442;6.778;2022-07-05T08:57:07;102072.81;;;20.71;46.44
67697;BME280;54486;51.442;6.778;2022-07-05T08:59:40;102066.66;;;20.69;47.17
67697;BME280;54486;51.442;6.778;2022-07-05T09:02:12;102060.56;;;20.65;47.53
67697;BME280;54486;51.442;6.778;2022-07-05T09:04:44;102060.19;;;20.79;47.50
67697;BME280;54486;51.442;6.778;2022-07-05T09:07:16;102071.53;;;20.84;47.28
67697;BME280;54486;51.442;6.778;2022-07-05T09:09:49;102068.06;;;20.82;46.74
67697;BME280;54486;51.442;6.778;2022-07-05T09:12:22;102061.00;;;20.81;47.51
67697;BME280;54486;51.442;6.778;2022-07-05T09:14:53;102059.28;;;20.80;47.15
67697;BME280;54486;51.442;6.778;2022-07-05T09:17:21;102056.03;;;20.99;47.53
67697;BME280;54486;51.442;6.778;2022-07-05T09:20:08;102062.97;;;21.03;47.06
67697;BME280;54486;51.442;6.778;2022-07-05T09:22:49;102063.72;;;21.08;47.08
67697;BME280;54486;51.442;6.778;2022-07-05T09:25:31;102062.28;;;20.97;47.59
67697;BME280;54486;51.442;6.778;2022-07-05T09:28:04;102061.19;;;21.04;46.46
67697;BME280;54486;51.442;6.778;2022-07-05T09:30:35;102063.06;;;21.00;44.17
67697;BME280;54486;51.442;6.778;2022-07-05T09:33:12;102062.94;;;21.05;46.00
67697;BME280;54486;51.442;6.778;2022-07-05T09:35:51;102064.47;;;21.14;46.05
67697;BME280;54486;51.442;6.778;2022-07-05T09:38:27;102068.78;;;21.18;45.23
67697;BME280;54486;51.442;6.778;2022-07-05T09:40:59;102068.50;;;21.27;43.98
67697;BME280;54486;51.442;6.778;2022-07-05T09:43:29;102064.53;;;21.12;44.25
67697;BME280;54486;51.442;6.778;2022-07-05T09:48:27;102052.88;;;21.16;42.05
67697;BME280;54486;51.442;6.778;2022-07-05T09:51:11;102046.19;;;21.32;41.78
67697;BME280;54486;51.442;6.778;2022-07-05T09:53:59;102055.09;;;21.57;41.63
67697;BME280;54486;51.442;6.778;2022-07-05T09:56:44;102055.13;;;21.84;40.77
67697;BME280;54486;51.442;6.778;2022-07-05T09:59:14;102058.81;;;22.06;41.46
67697;BME280;54486;51.442;6.778;2022-07-05T10:01:42;102065.97;;;22.04;41.29
67697;BME280;54486;51.442;6.778;2022-07-05T10:04:10;102057.66;;;21.87;41.30
67697;BME280;54486;51.442;6.778;2022-07-05T10:06:37;102056.63;;;21.92;41.26
67697;BME280;54486;51.442;6.778;2022-07-05T10:09:05;102058.47;;;21.90;40.08
67697;BME280;54486;51.442;6.778;2022-07-05T10:11:32;102057.59;;;21.90;39.91
67697;BME280;54486;51.442;6.778;2022-07-05T10:14:02;102057.28;;;21.99;39.22
67697;BME280;54486;51.442;6.778;2022-07-05T10:16:30;102062.47;;;22.02;37.91
67697;BME280;54486;51.442;6.778;2022-07-05T10:18:58;102062.19;;;22.11;39.01
67697;BME280;54486;51.442;6.778;2022-07-05T10:21:25;102061.88;;;22.20;38.98
67697;BME280;54486;51.442;6.778;2022-07-05T10:23:55;102054.03;;;22.40;39.94
67697;BME280;54486;51.442;6.778;2022-07-05T10:26:24;102050.13;;;22.50;39.58
67697;BME280;54486;51.442;6.778;2022-07-05T10:28:53;102055.09;;;22.59;39.54
67697;BME280;54486;51.442;6.778;2022-07-05T10:31:28;102056.84;;;22.60;39.63
67697;BME280;54486;51.442;6.778;2022-07-05T10:33:57;102061.75;;;22.23;39.70
67697;BME280;54486;51.442;6.778;2022-07-05T10:36:27;102054.44;;;22.53;39.20
67697;BME280;54486;51.442;6.778;2022-07-05T10:38:55;102053.91;;;22.43;39.56
67697;BME280;54486;51.442;6.778;2022-07-05T10:41:25;102053.91;;;22.43;38.59
67697;BME280;54486;51.442;6.778;2022-07-05T10:43:54;102060.19;;;22.42;39.63
67697;BME280;54486;51.442;6.778;2022-07-05T10:46:36;102067.28;;;22.66;39.95
67697;BME280;54486;51.442;6.778;2022-07-05T10:49:16;102059.78;;;22.78;40.25
67697;BME280;54486;51.442;6.778;2022-07-05T10:51:47;102062.16;;;22.60;40.67
67697;BME280;54486;51.442;6.778;2022-07-05T10:54:19;102063.38;;;22.52;40.09
67697;BME280;54486;51.442;6.778;2022-07-05T10:57:27;102062.72;;;22.45;40.83
67697;BME280;54486;51.442;6.778;2022-07-05T11:00:23;102063.72;;;22.67;38.98
67697;BME280;54486;51.442;6.778;2022-07-05T11:03:05;102053.38;;;22.58;38.67
67697;BME280;54486;51.442;6.778;2022-07-05T11:05:33;102051.41;;;22.63;39.42
67697;BME280;54486;51.442;6.778;2022-07-05T11:08:05;102048.47;;;22.46;39.90
67697;BME280;54486;51.442;6.778;2022-07-05T11:10:32;102052.44;;;22.36;39.37
67697;BME280;54486;51.442;6.778;2022-07-05T11:12:59;102059.13;;;22.46;39.06
67697;BME280;54486;51.442;6.778;2022-07-05T11:15:30;102047.09;;;22.36;38.26
67697;BME280;54486;51.442;6.778;2022-07-05T11:18:13;102048.94;;;22.34;36.58
67697;BME280;54486;51.442;6.778;2022-07-05T11:20:41;102049.47;;;21.94;37.60
67697;BME280;54486;51.442;6.778;2022-07-05T11:23:12;102052.28;;;21.90;38.88
67697;BME280;54486;51.442;6.778;2022-07-05T11:25:43;102037.88;;;22.22;39.60
67697;BME280;54486;51.442;6.778;2022-07-05T11:28:19;102046.47;;;22.30;38.18
67697;BME280;54486;51.442;6.778;2022-07-05T11:30:57;102032.75;;;22.40;38.68
67697;BME280;54486;51.442;6.778;2022-07-05T11:33:35;102037.41;;;22.58;38.00
67697;BME280;54486;51.442;6.778;2022-07-05T11:36:18;102032.94;;;22.84;36.86
67697;BME280;54486;51.442;6.778;2022-07-05T11:39:20;102025.44;;;23.38;35.75
67697;BME280;54486;51.442;6.778;2022-07-05T11:41:48;102032.34;;;23.20;35.85
67697;BME280;54486;51.442;6.778;2022-07-05T11:44:16;102022.19;;;23.30;35.34
67697;BME280;54486;51.442;6.778;2022-07-05T11:46:45;102017.00;;;23.49;35.53
67697;BME280;54486;51.442;6.778;2022-07-05T11:49:20;102024.72;;;23.33;34.81
67697;BME280;54486;51.442;6.778;2022-07-05T11:51:55;102018.88;;;23.25;35.45
67697;BME280;54486;51.442;6.778;2022-07-05T11:54:30;102019.28;;;23.36;35.60
67697;BME280;54486;51.442;6.778;2022-07-05T11:56:59;102011.78;;;23.24;35.12
67697;BME280;54486;51.442;6.778;2022-07-05T11:59:27;102011.75;;;23.26;36.56
67697;BME280;54486;51.442;6.778;2022-07-05T12:01:55;102006.78;;;23.16;36.79
67697;BME280;54486;51.442;6.778;2022-07-05T12:04:27;101998.75;;;23.40;37.90
67697;BME280;54486;51.442;6.778;2022-07-05T12:06:55;102010.38;;;23.59;36.36
67697;BME280;54486;51.442;6.778;2022-07-05T12:09:41;102017.88;;;23.49;36.80
67697;BME280;54486;51.442;6.778;2022-07-05T12:12:29;102012.03;;;23.61;36.78
67697;BME280;54486;51.442;6.778;2022-07-05T12:15:19;102002.78;;;23.50;36.84
67697;BME280;54486;51.442;6.778;2022-07-05T12:17:49;101988.22;;;23.79;37.57
67697;BME280;54486;51.442;6.778;2022-07-05T12:20:21;101993.88;;;23.91;35.42
67697;BME280;54486;51.442;6.778;2022-07-05T12:22:50;101986.03;;;24.08;35.31
67697;BME280;54486;51.442;6.778;2022-07-05T12:25:21;101995.31;;;24.20;36.28
67697;BME280;54486;51.442;6.778;2022-07-05T12:27:50;101988.50;;;24.13;36.36
67697;BME280;54486;51.442;6.778;2022-07-05T12:30:17;101986.59;;;24.35;36.26
67697;BME280;54486;51.442;6.778;2022-07-05T12:32:58;101995.78;;;24.48;36.67
67697;BME280;54486;51.442;6.778;2022-07-05T12:35:34;101980.59;;;24.50;36.15
67697;BME280;54486;51.442;6.778;2022-07-05T12:38:03;101982.09;;;24.74;36.54
67697;BME280;54486;51.442;6.778;2022-07-05T12:40:30;101982.22;;;24.34;36.08
67697;BME280;54486;51.442;6.778;2022-07-05T12:43:09;101983.88;;;24.37;34.61
67697;BME280;54486;51.442;6.778;2022-07-05T12:45:38;101983.47;;;24.26;35.81
67697;BME280;54486;51.442;6.778;2022-07-05T12:48:08;101988.84;;;24.44;35.86
67697;BME280;54486;51.442;6.778;2022-07-05T12:53:31;101984.81;;;25.29;34.95
67697;BME280;54486;51.442;6.778;2022-07-05T12:56:22;101978.69;;;25.44;34.26
67697;BME280;54486;51.442;6.778;2022-07-05T12:59:28;101975.19;;;25.95;33.18
67697;BME280;54486;51.442;6.778;2022-07-05T13:01:55;101977.09;;;25.93;32.85
67697;BME280;54486;51.442;6.778;2022-07-05T13:04:22;101978.84;;;25.77;33.87
67697;BME280;54486;51.442;6.778;2022-07-05T13:06:50;101973.34;;;25.44;34.16
67697;BME280;54486;51.442;6.778;2022-07-05T13:09:30;101973.72;;;25.90;34.18
67697;BME280;54486;51.442;6.778;2022-07-05T13:12:12;101972.13;;;26.03;35.08
67697;BME280;54486;51.442;6.778;2022-07-05T13:14:44;101987.72;;;25.77;34.24